YARG

Details ICAO YARG (GYL)
Name Argyle
Region Australia
Timezone Australia/Perth (UTC+8.0)
Plans Departing 5
Arriving 5
Stats Elevation 522 ft / 159 m (AMSL)
Location -16.635039° 128.450603°
Runways 1
Magnetic Variation 2.631° E
Sunrise 2018-05-27 21:48:00 UTC / 2018-05-28 05:48:00 Local
Sunset 2018-05-28 09:01:45 UTC / 2018-05-28 17:01:45 Local
Advertisement - Login to hide

Runways

ID Width Length Bearing (true) Bearing (mag) Surface Threshold Offset Overrun Length
2 98 ft / 30 m 8,164 ft / 2,488 m 21.27° 18.64° Asphalt 285 ft / 87 m 0 ft / 0 m
20 98 ft / 30 m 8,164 ft / 2,488 m 201.27° 198.64° Asphalt 305 ft / 93 m 0 ft / 0 m

Map

Weather


0- 5 10 15 20 25 30 35+ Temperature / ° C

Clouds and Precipitation
Forecast for 2018-05-28 00:00 UTC. Updated 2 hours ago

Ground ~20,000 ft ~40,000 ft Winds

METAR

YARG 280100Z AUTO 12004KT 080V160 9999 // NCD 29/07 Q1016

TAF

Not found

Frequencies

Unicom 127.30 MHz CTAF
Warning: Do not use this data for real-world aviation or navigation. No guarantee of current accuracy is given.